Time;durP1;ratioP1;P1;durP2;ratioP2;P2;SDS_P1;SDS_P2;PMS_P1;PMS_P2;Temp;Humidity;BMP_temperature;BMP_pressure;BME280_temperature;BME280_humidity;BME280_pressure;Samples;Min_cycle;Max_cycle;Signal;HPM_P1;HPM_P2
2022/06/19 00:02:07;;;;;;;;;;;;;;;22.09;79.67;97477.11;607852;233;64857;-69
2022/06/19 00:04:35;;;;;;;;;;;;;;;22.08;79.72;97468.28;607904;233;65447;-74
2022/06/19 00:07:03;;;;;;;;;;;;;;;22.08;79.70;97472.83;607976;233;64428;-74
2022/06/19 00:09:30;;;;;;;;;;;;;;;22.08;79.72;97468.28;607908;233;62791;-74
2022/06/19 00:11:57;;;;;;;;;;;;;;;22.09;79.67;97466.40;607913;233;66645;-74
2022/06/19 00:14:25;;;;;;;;;;;;;;;22.09;79.55;97458.37;607899;233;66745;-74
2022/06/19 00:16:52;;;;;;;;;;;;;;;22.09;79.54;97463.72;607927;233;62798;-74
2022/06/19 00:19:20;;;;;;;;;;;;;;;22.08;79.63;97456.77;603055;233;64391;-74
2022/06/19 00:21:47;;;;;;;;;;;;;;;22.08;79.77;97454.89;601767;236;64680;-74
2022/06/19 00:24:15;;;;;;;;;;;;;;;22.09;79.64;97461.05;601715;236;65183;-74
2022/06/19 00:26:42;;;;;;;;;;;;;;;22.08;79.62;97459.45;601721;236;66892;-74
2022/06/19 00:29:10;;;;;;;;;;;;;;;22.08;79.69;97462.13;601728;236;64504;-74
2022/06/19 00:31:38;;;;;;;;;;;;;;;22.08;79.65;97457.57;601712;236;63010;-74
2022/06/19 00:34:05;;;;;;;;;;;;;;;22.08;79.75;97454.89;601776;236;64461;-74
2022/06/19 00:36:33;;;;;;;;;;;;;;;22.08;79.92;97449.54;601718;236;64552;-74
2022/06/19 00:39:00;;;;;;;;;;;;;;;22.08;79.91;97451.42;601702;236;62831;-74
2022/06/19 00:41:29;;;;;;;;;;;;;;;22.08;79.90;97456.77;601693;235;64903;-74
2022/06/19 00:43:59;;;;;;;;;;;;;;;22.07;80.02;97458.66;601643;235;66888;-74
2022/06/19 00:46:37;;;;;;;;;;;;;;;22.07;80.13;97460.50;601773;236;62795;-74
2022/06/19 00:49:06;;;;;;;;;;;;;;;22.07;80.17;97453.30;601672;236;68938;-74
2022/06/19 00:51:33;;;;;;;;;;;;;;;22.07;80.18;97458.66;601745;236;66664;-74
2022/06/19 00:54:01;;;;;;;;;;;;;;;22.06;80.04;97454.35;601711;236;64858;-74
2022/06/19 00:56:30;;;;;;;;;;;;;;;22.07;80.03;97460.50;601694;235;66749;-74
2022/06/19 00:58:57;;;;;;;;;;;;;;;22.06;80.02;97454.35;601731;236;66734;-74
2022/06/19 01:01:26;;;;;;;;;;;;;;;22.06;80.13;97454.35;601761;236;62764;-74
2022/06/19 01:03:55;;;;;;;;;;;;;;;22.07;80.30;97458.66;601714;236;64335;-69
2022/06/19 01:06:23;;;;;;;;;;;;;;;22.06;80.35;97457.03;601707;236;64657;-69
2022/06/19 01:08:52;;;;;;;;;;;;;;;22.06;80.40;97449.00;601716;236;62820;-69
2022/06/19 01:11:21;;;;;;;;;;;;;;;22.06;80.38;97448.20;601711;236;67643;-69
2022/06/19 01:13:49;;;;;;;;;;;;;;;22.06;80.53;97453.55;601737;236;64605;-69
2022/06/19 01:16:17;;;;;;;;;;;;;;;22.06;80.50;97454.35;601726;236;62660;-68
2022/06/19 01:18:45;;;;;;;;;;;;;;;22.06;80.52;97458.91;601673;233;64579;-68
2022/06/19 01:21:20;;;;;;;;;;;;;;;22.06;80.70;97454.35;601744;236;64304;-68
2022/06/19 01:24:07;;;;;;;;;;;;;;;22.06;80.71;97448.20;601433;236;64887;-71
2022/06/19 01:26:36;;;;;;;;;;;;;;;22.06;80.89;97453.55;601643;236;66790;-69
2022/06/19 01:29:04;;;;;;;;;;;;;;;22.06;80.96;97456.23;601626;236;66951;-69
2022/06/19 01:31:33;;;;;;;;;;;;;;;22.06;80.94;97464.27;601713;236;64832;-69
2022/06/19 01:34:02;;;;;;;;;;;;;;;22.06;81.07;97458.91;601669;236;66869;-69
2022/06/19 01:36:31;;;;;;;;;;;;;;;22.05;81.13;97466.14;601735;236;66721;-69
2022/06/19 01:39:00;;;;;;;;;;;;;;;22.05;81.15;97465.34;601702;236;62361;-69
2022/06/19 01:41:29;;;;;;;;;;;;;;;22.05;81.25;97473.37;601790;236;66810;-74
2022/06/19 01:43:57;;;;;;;;;;;;;;;22.05;81.41;97473.37;601766;236;64402;-74
2022/06/19 01:46:27;;;;;;;;;;;;;;;22.04;81.26;97471.74;601702;236;62755;-69
2022/06/19 01:48:55;;;;;;;;;;;;;;;22.04;81.46;97467.19;601724;236;66773;-69
2022/06/19 01:51:22;;;;;;;;;;;;;;;22.04;81.39;97469.86;601722;236;66703;-69
2022/06/19 01:53:51;;;;;;;;;;;;;;;22.04;81.40;97471.74;601661;236;64930;-69
2022/06/19 01:56:19;;;;;;;;;;;;;;;22.04;81.36;97471.74;601769;236;67210;-69
2022/06/19 01:58:50;;;;;;;;;;;;;;;22.04;81.29;97474.42;601706;236;66724;-69
2022/06/19 02:01:18;;;;;;;;;;;;;;;22.04;81.17;97469.06;601678;236;63003;-69
2022/06/19 02:03:50;;;;;;;;;;;;;;;22.04;81.23;97477.09;601724;236;66800;-69
2022/06/19 02:06:18;;;;;;;;;;;;;;;22.04;81.19;97471.74;601711;236;64435;-69
2022/06/19 02:08:47;;;;;;;;;;;;;;;22.04;81.34;97471.74;601798;236;62898;-69
2022/06/19 02:11:16;;;;;;;;;;;;;;;22.04;81.36;97471.74;601744;236;66733;-69
2022/06/19 02:13:45;;;;;;;;;;;;;;;22.03;81.37;97468.27;601728;236;67127;-69
2022/06/19 02:16:14;;;;;;;;;;;;;;;22.04;81.50;97471.74;601701;236;65066;-69
2022/06/19 02:18:43;;;;;;;;;;;;;;;22.04;81.55;97474.42;601577;233;64124;-69
2022/06/19 02:21:21;;;;;;;;;;;;;;;22.04;81.40;97471.74;601743;236;66336;-69
2022/06/19 02:23:49;;;;;;;;;;;;;;;22.04;81.47;97469.06;601735;236;64966;-70
2022/06/19 02:26:18;;;;;;;;;;;;;;;22.04;81.54;97466.39;601711;236;66833;-69
2022/06/19 02:28:48;;;;;;;;;;;;;;;22.03;81.25;97462.12;601745;236;63989;-69
2022/06/19 02:31:16;;;;;;;;;;;;;;;22.03;81.24;97464.80;601728;236;65108;-69
2022/06/19 02:33:45;;;;;;;;;;;;;;;22.03;81.39;97472.83;601710;236;64344;-69
2022/06/19 02:36:30;;;;;;;;;;;;;;;22.02;81.35;97473.91;601758;236;64279;-69
2022/06/19 02:39:00;;;;;;;;;;;;;;;22.03;81.37;97478.98;601731;236;65047;-69
2022/06/19 02:41:29;;;;;;;;;;;;;;;22.03;81.31;97473.62;601691;236;66805;-69
2022/06/19 02:43:57;;;;;;;;;;;;;;;22.02;81.40;97476.58;601619;236;66928;-69
2022/06/19 02:46:24;;;;;;;;;;;;;;;22.02;81.47;97477.38;601700;236;64907;-69
2022/06/19 02:48:51;;;;;;;;;;;;;;;22.02;81.37;97485.41;601674;236;66859;-69
2022/06/19 02:51:19;;;;;;;;;;;;;;;22.03;81.26;97480.86;601764;235;66774;-69
2022/06/19 02:53:46;;;;;;;;;;;;;;;22.03;81.17;97475.50;601692;236;64856;-69
2022/06/19 02:56:14;;;;;;;;;;;;;;;22.02;81.23;97484.61;601696;236;64652;-69
2022/06/19 02:58:41;;;;;;;;;;;;;;;22.02;81.34;97487.28;601726;236;64386;-69
2022/06/19 03:01:09;;;;;;;;;;;;;;;22.02;81.48;97488.08;601726;236;62772;-69
2022/06/19 03:03:37;;;;;;;;;;;;;;;22.02;81.58;97479.26;601742;236;66577;-69
2022/06/19 03:06:05;;;;;;;;;;;;;;;22.02;81.57;97487.28;601694;236;66639;-69
2022/06/19 03:08:32;;;;;;;;;;;;;;;22.02;81.54;97488.08;601660;236;65055;-69
2022/06/19 03:11:00;;;;;;;;;;;;;;;22.02;81.41;97474.70;601716;236;67058;-69
2022/06/19 03:13:27;;;;;;;;;;;;;;;22.02;81.42;97487.28;601696;236;66639;-69
2022/06/19 03:16:02;;;;;;;;;;;;;;;22.03;81.58;97488.88;601655;236;66169;-69
2022/06/19 03:18:30;;;;;;;;;;;;;;;22.01;81.39;97488.34;601707;233;66936;-69
2022/06/19 03:20:58;;;;;;;;;;;;;;;22.03;81.28;97491.56;601722;236;64476;-70
2022/06/19 03:23:25;;;;;;;;;;;;;;;22.02;81.31;97493.44;601696;236;62750;-69
2022/06/19 03:25:53;;;;;;;;;;;;;;;22.02;81.51;97506.81;601713;236;64558;-74
2022/06/19 03:28:21;;;;;;;;;;;;;;;22.02;81.48;97500.67;601687;236;64554;-74
2022/06/19 03:30:50;;;;;;;;;;;;;;;22.01;81.45;97504.39;601725;236;62780;-74
2022/06/19 03:33:17;;;;;;;;;;;;;;;22.01;81.34;97502.52;601612;235;64570;-74
2022/06/19 03:35:45;;;;;;;;;;;;;;;22.01;81.40;97499.84;601691;236;64478;-74
2022/06/19 03:38:12;;;;;;;;;;;;;;;22.01;81.37;97499.04;601682;236;62915;-74
2022/06/19 03:40:40;;;;;;;;;;;;;;;22.02;81.41;97500.67;601709;236;64643;-74
2022/06/19 03:43:07;;;;;;;;;;;;;;;22.01;81.17;97496.36;601691;236;64534;-74
2022/06/19 03:45:35;;;;;;;;;;;;;;;22.01;81.27;97507.88;601681;236;62796;-74
2022/06/19 03:48:02;;;;;;;;;;;;;;;22.01;81.24;97501.72;601725;236;66584;-74
2022/06/19 03:50:29;;;;;;;;;;;;;;;22.01;81.25;97505.19;601754;236;66297;-74
2022/06/19 03:52:57;;;;;;;;;;;;;;;22.01;81.25;97509.75;601740;236;64734;-69
2022/06/19 03:55:24;;;;;;;;;;;;;;;22.01;81.25;97504.39;601749;236;66798;-69
2022/06/19 03:57:52;;;;;;;;;;;;;;;22.01;81.16;97509.75;601691;236;66879;-69
2022/06/19 04:00:20;;;;;;;;;;;;;;;22.01;81.31;97513.22;601737;236;64966;-69
2022/06/19 04:02:47;;;;;;;;;;;;;;;22.01;81.31;97512.42;601708;235;66719;-69
2022/06/19 04:05:15;;;;;;;;;;;;;;;22.01;81.35;97515.09;601739;236;66562;-69
2022/06/19 04:07:47;;;;;;;;;;;;;;;22.00;81.17;97514.30;601735;236;62911;-69
2022/06/19 04:10:15;;;;;;;;;;;;;;;22.00;81.12;97510.83;601716;236;66839;-69
2022/06/19 04:12:43;;;;;;;;;;;;;;;22.00;80.92;97503.59;601731;236;66764;-69
2022/06/19 04:15:11;;;;;;;;;;;;;;;22.00;80.72;97508.95;601738;236;62983;-69
2022/06/19 04:17:39;;;;;;;;;;;;;;;22.00;80.59;97510.83;602166;233;64164;-69
2022/06/19 04:20:07;;;;;;;;;;;;;;;22.00;80.61;97505.48;607949;233;64774;-69
2022/06/19 04:22:35;;;;;;;;;;;;;;;22.00;80.61;97506.27;607907;233;65126;-69
2022/06/19 04:25:04;;;;;;;;;;;;;;;22.00;80.55;97510.83;607942;233;67058;-69
2022/06/19 04:27:32;;;;;;;;;;;;;;;21.99;80.49;97504.67;607895;233;66743;-69
2022/06/19 04:29:59;;;;;;;;;;;;;;;21.99;80.58;97503.84;607938;233;64879;-69
2022/06/19 04:32:27;;;;;;;;;;;;;;;22.00;80.48;97505.48;607644;233;66971;-69
2022/06/19 04:34:54;;;;;;;;;;;;;;;21.99;80.50;97506.52;607985;233;66621;-69
2022/06/19 04:37:22;;;;;;;;;;;;;;;21.99;80.57;97507.36;607866;233;65343;-69
2022/06/19 04:39:50;;;;;;;;;;;;;;;21.99;80.53;97503.84;607978;233;64526;-69
2022/06/19 04:42:17;;;;;;;;;;;;;;;21.99;80.54;97503.84;607915;233;64526;-69
2022/06/19 04:44:44;;;;;;;;;;;;;;;21.98;80.64;97496.90;607939;233;63667;-69
2022/06/19 04:47:12;;;;;;;;;;;;;;;21.99;80.77;97501.17;607976;233;66893;-69
2022/06/19 04:49:39;;;;;;;;;;;;;;;21.98;80.97;97499.58;607907;233;66684;-69
2022/06/19 04:52:07;;;;;;;;;;;;;;;21.99;81.06;97501.17;607948;233;64929;-69
2022/06/19 04:54:34;;;;;;;;;;;;;;;21.98;81.16;97503.05;607952;233;66739;-69
2022/06/19 04:57:02;;;;;;;;;;;;;;;21.99;81.06;97503.84;607918;233;66699;-69
2022/06/19 04:59:29;;;;;;;;;;;;;;;21.99;81.11;97490.47;607945;233;65053;-69
2022/06/19 05:01:57;;;;;;;;;;;;;;;21.97;81.15;97493.42;607994;233;66835;-69
2022/06/19 05:04:24;;;;;;;;;;;;;;;21.98;81.14;97491.55;607930;233;66335;-69
2022/06/19 05:06:52;;;;;;;;;;;;;;;21.98;81.19;97494.22;607923;233;64947;-69
2022/06/19 05:09:19;;;;;;;;;;;;;;;21.98;81.21;97499.58;607956;233;66593;-69
2022/06/19 05:11:47;;;;;;;;;;;;;;;21.98;81.14;97494.22;607902;233;66910;-69
2022/06/19 05:14:14;;;;;;;;;;;;;;;21.97;81.21;97493.42;607984;233;64865;-69
2022/06/19 05:16:42;;;;;;;;;;;;;;;21.98;80.96;97494.22;607922;233;66824;-69
2022/06/19 05:19:11;;;;;;;;;;;;;;;21.97;81.11;97493.42;603486;233;66683;-69
2022/06/19 05:21:38;;;;;;;;;;;;;;;21.97;81.18;97490.75;601726;236;62736;-69
2022/06/19 05:24:06;;;;;;;;;;;;;;;21.97;81.28;97497.98;601719;236;64396;-69
2022/06/19 05:26:34;;;;;;;;;;;;;;;21.95;81.24;97491.00;601679;236;64351;-69
2022/06/19 05:29:03;;;;;;;;;;;;;;;21.96;81.17;97491.80;601714;236;64853;-69
2022/06/19 05:31:31;;;;;;;;;;;;;;;21.96;81.17;97494.48;601702;236;66585;-69
2022/06/19 05:33:59;;;;;;;;;;;;;;;21.97;81.05;97497.98;601699;236;64631;-69
2022/06/19 05:36:29;;;;;;;;;;;;;;;21.97;81.09;97495.30;601739;236;62446;-69
2022/06/19 05:38:56;;;;;;;;;;;;;;;21.97;81.05;97497.98;601720;236;67015;-69
2022/06/19 05:41:24;;;;;;;;;;;;;;;21.95;81.16;97499.03;601730;236;64768;-71
2022/06/19 05:43:51;;;;;;;;;;;;;;;21.95;81.08;97501.70;601688;236;62760;-70
2022/06/19 05:46:20;;;;;;;;;;;;;;;21.96;81.04;97502.50;601699;236;64356;-70
2022/06/19 05:48:48;;;;;;;;;;;;;;;21.96;81.05;97502.50;601774;236;66704;-70
2022/06/19 05:51:17;;;;;;;;;;;;;;;21.86;81.20;97489.92;601755;236;64878;-70
2022/06/19 05:53:45;;;;;;;;;;;;;;;21.95;81.29;97499.03;601728;236;64633;-70
2022/06/19 05:56:14;;;;;;;;;;;;;;;21.95;81.31;97499.03;601708;236;64707;-70
2022/06/19 05:58:41;;;;;;;;;;;;;;;21.95;81.33;97496.36;601667;236;64903;-68
2022/06/19 06:01:10;;;;;;;;;;;;;;;21.95;81.44;97496.36;601691;236;66906;-70
2022/06/19 06:03:38;;;;;;;;;;;;;;;21.95;81.60;97501.70;601741;236;64406;-70
2022/06/19 06:06:07;;;;;;;;;;;;;;;21.95;81.65;97493.68;601708;235;62837;-70
2022/06/19 06:08:36;;;;;;;;;;;;;;;21.95;81.49;97495.56;601709;236;66773;-70
2022/06/19 06:11:04;;;;;;;;;;;;;;;21.94;81.50;97497.44;601673;236;64644;-70
2022/06/19 06:13:31;;;;;;;;;;;;;;;21.93;80.41;97495.84;601702;236;62674;-73
2022/06/19 06:15:59;;;;;;;;;;;;;;;21.93;78.02;97493.16;601789;236;64557;-73
2022/06/19 06:18:27;;;;;;;;;;;;;;;21.95;79.19;97490.20;601685;233;64370;-73
2022/06/19 06:20:58;;;;;;;;;;;;;;;21.95;79.80;97480.30;601717;236;62744;-73
2022/06/19 06:23:26;;;;;;;;;;;;;;;21.97;80.43;97490.75;601713;236;66794;-73
2022/06/19 06:26:00;;;;;;;;;;;;;;;21.99;80.58;97490.47;601673;236;66762;-73
2022/06/19 06:28:29;;;;;;;;;;;;;;;21.98;80.47;97488.88;601726;236;62780;-74
2022/06/19 06:30:57;;;;;;;;;;;;;;;21.99;80.44;97479.77;601771;236;66603;-74
2022/06/19 06:33:25;;;;;;;;;;;;;;;21.98;80.42;97484.31;601534;236;66473;-69
2022/06/19 06:35:53;;;;;;;;;;;;;;;21.99;80.40;97483.27;601721;236;63826;-69
2022/06/19 06:38:20;;;;;;;;;;;;;;;21.99;80.32;97483.27;601713;236;66604;-69
2022/06/19 06:40:48;;;;;;;;;;;;;;;21.99;80.27;97475.23;601694;236;66605;-70
2022/06/19 06:43:16;;;;;;;;;;;;;;;22.00;80.39;97481.39;601773;236;65118;-69
2022/06/19 06:45:43;;;;;;;;;;;;;;;22.00;80.34;97473.36;601688;236;67445;-69
2022/06/19 06:48:11;;;;;;;;;;;;;;;22.01;80.37;97474.95;601702;236;66682;-69
2022/06/19 06:50:40;;;;;;;;;;;;;;;22.02;80.39;97480.05;601659;236;65142;-69
2022/06/19 06:53:08;;;;;;;;;;;;;;;22.01;80.48;97482.98;601708;236;67322;-69
2022/06/19 06:55:39;;;;;;;;;;;;;;;22.02;80.55;97471.23;601752;236;66598;-69
2022/06/19 06:58:06;;;;;;;;;;;;;;;22.02;80.50;97476.58;601686;236;65232;-69
2022/06/19 07:00:34;;;;;;;;;;;;;;;22.02;80.40;97484.61;601695;236;66849;-69
2022/06/19 07:03:02;;;;;;;;;;;;;;;22.02;80.38;97484.61;601704;236;66733;-69
2022/06/19 07:05:29;;;;;;;;;;;;;;;22.02;80.39;97477.38;601687;236;64889;-69
2022/06/19 07:07:58;;;;;;;;;;;;;;;22.03;80.45;97486.20;601774;236;66815;-69
2022/06/19 07:10:26;;;;;;;;;;;;;;;22.03;80.46;97489.68;601744;236;66612;-69
2022/06/19 07:12:53;;;;;;;;;;;;;;;22.03;80.45;97475.50;601697;236;64826;-69
2022/06/19 07:15:21;;;;;;;;;;;;;;;22.04;80.39;97482.45;601665;236;66941;-69
2022/06/19 07:17:48;;;;;;;;;;;;;;;22.03;80.32;97480.86;601621;233;66674;-69
2022/06/19 07:20:16;;;;;;;;;;;;;;;22.03;80.26;97487.00;601695;236;62729;-69
2022/06/19 07:22:43;;;;;;;;;;;;;;;22.03;80.23;97478.98;601714;236;64562;-69
2022/06/19 07:25:13;;;;;;;;;;;;;;;22.04;80.25;97477.89;601716;236;64474;-69
2022/06/19 07:27:40;;;;;;;;;;;;;;;22.04;80.20;97477.09;601501;236;65242;-69
2022/06/19 07:30:08;;;;;;;;;;;;;;;22.04;80.37;97477.89;601658;236;64637;-69
2022/06/19 07:32:36;;;;;;;;;;;;;;;22.04;80.40;97482.45;601734;236;66548;-69
2022/06/19 07:35:04;;;;;;;;;;;;;;;22.05;80.40;97479.52;601733;236;64905;-69
2022/06/19 07:37:31;;;;;;;;;;;;;;;22.05;80.30;97474.16;601673;236;64681;-69
2022/06/19 07:39:59;;;;;;;;;;;;;;;22.04;80.25;97469.06;601693;236;64796;-69
2022/06/19 07:42:26;;;;;;;;;;;;;;;22.05;80.13;97478.72;601670;236;62738;-69
2022/06/19 07:44:54;;;;;;;;;;;;;;;22.05;80.27;97471.48;601653;236;66594;-69
2022/06/19 07:50:10;;;;;;;;;;;;;;;22.06;80.25;97469.61;601735;236;62833;-71
2022/06/19 07:52:39;;;;;;;;;;;;;;;22.06;80.36;97466.94;601703;236;64630;-71
2022/06/19 07:55:07;;;;;;;;;;;;;;;22.05;80.28;97468.02;601665;236;66631;-70
2022/06/19 07:57:35;;;;;;;;;;;;;;;22.05;80.08;97468.02;601716;236;65072;-70
2022/06/19 08:00:03;;;;;;;;;;;;;;;22.06;80.25;97472.28;601674;236;66532;-70
2022/06/19 08:02:32;;;;;;;;;;;;;;;22.05;80.23;97479.52;601834;236;46937;-70
2022/06/19 08:04:59;;;;;;;;;;;;;;;22.06;80.28;97469.61;601651;236;64865;-70
2022/06/19 08:07:27;;;;;;;;;;;;;;;22.06;80.10;97467.73;601691;236;67079;-70
2022/06/19 08:09:54;;;;;;;;;;;;;;;22.06;80.21;97474.97;601673;236;64318;-70
2022/06/19 08:12:22;;;;;;;;;;;;;;;22.06;80.35;97466.94;601694;236;62805;-70
2022/06/19 08:14:49;;;;;;;;;;;;;;;22.06;80.27;97469.61;601733;236;66767;-70
2022/06/19 08:17:17;;;;;;;;;;;;;;;22.06;80.16;97469.61;601681;236;66654;-70
2022/06/19 08:19:44;;;;;;;;;;;;;;;22.06;80.14;97467.73;601630;233;64887;-70
2022/06/19 08:22:12;;;;;;;;;;;;;;;22.07;80.00;97476.56;601682;236;66749;-71
2022/06/19 08:24:39;;;;;;;;;;;;;;;22.07;80.17;97476.56;601688;236;66824;-71
2022/06/19 08:27:07;;;;;;;;;;;;;;;22.07;80.01;97471.20;601726;236;64871;-70
2022/06/19 08:29:35;;;;;;;;;;;;;;;22.07;80.11;97471.20;601661;236;66732;-70
2022/06/19 08:32:03;;;;;;;;;;;;;;;22.07;80.04;97465.85;601704;236;66617;-70
2022/06/19 08:34:30;;;;;;;;;;;;;;;22.07;79.93;97463.17;601712;236;63064;-70
2022/06/19 08:36:59;;;;;;;;;;;;;;;22.07;79.80;97460.50;601708;236;66944;-70
2022/06/19 08:39:28;;;;;;;;;;;;;;;22.07;79.83;97457.83;601720;236;67000;-70
2022/06/19 08:41:58;;;;;;;;;;;;;;;22.07;79.99;97460.50;601759;236;62829;-71
2022/06/19 08:44:30;;;;;;;;;;;;;;;22.06;79.84;97453.55;601720;236;64530;-70
2022/06/19 08:46:59;;;;;;;;;;;;;;;22.06;79.96;97451.67;601634;236;66511;-69
2022/06/19 08:49:35;;;;;;;;;;;;;;;22.08;79.85;97454.09;601521;235;64893;-69
2022/06/19 08:52:07;;;;;;;;;;;;;;;22.07;79.84;97461.33;601684;235;65544;-69
2022/06/19 08:54:39;;;;;;;;;;;;;;;22.07;79.83;97447.12;601726;236;66916;-69
2022/06/19 08:57:16;;;;;;;;;;;;;;;22.07;79.91;97444.44;601644;236;64881;-69
2022/06/19 08:59:48;;;;;;;;;;;;;;;22.07;80.00;97447.12;601619;236;66942;-69
2022/06/19 09:02:36;;;;;;;;;;;;;;;22.07;79.90;97441.77;601618;235;66655;-69
2022/06/19 09:07:52;;;;;;;;;;;;;;;22.06;79.92;97443.64;601730;236;64672;-74
2022/06/19 09:10:36;;;;;;;;;;;;;;;22.07;79.94;97439.92;601575;236;66685;-74
2022/06/19 09:13:08;;;;;;;;;;;;;;;22.07;79.90;97441.77;601678;235;65084;-74
2022/06/19 09:15:43;;;;;;;;;;;;;;;22.06;79.85;97435.61;601696;235;64361;-73
2022/06/19 09:18:12;;;;;;;;;;;;;;;22.06;79.73;97434.81;601669;232;66642;-73
2022/06/19 09:20:47;;;;;;;;;;;;;;;22.07;79.72;97436.41;600590;235;64964;-73
2022/06/19 09:23:16;;;;;;;;;;;;;;;22.07;79.85;97436.41;601713;236;67575;-74
2022/06/19 09:25:48;;;;;;;;;;;;;;;22.06;79.98;97438.30;601644;235;64714;-73
2022/06/19 09:28:20;;;;;;;;;;;;;;;22.07;79.85;97431.06;601646;235;63752;-73
2022/06/19 09:30:58;;;;;;;;;;;;;;;22.06;79.81;97430.27;601748;236;64302;-74
2022/06/19 09:33:26;;;;;;;;;;;;;;;22.06;79.73;97422.23;601636;236;66698;-73
2022/06/19 09:35:58;;;;;;;;;;;;;;;22.07;79.66;97423.86;601652;235;64775;-73
2022/06/19 09:38:29;;;;;;;;;;;;;;;22.06;79.74;97427.59;601732;236;66862;-74
2022/06/19 09:40:58;;;;;;;;;;;;;;;22.07;80.01;97431.06;601647;235;66761;-73
2022/06/19 09:43:30;;;;;;;;;;;;;;;22.07;80.04;97428.38;601649;235;65217;-74
2022/06/19 09:45:59;;;;;;;;;;;;;;;22.07;80.13;97423.03;601691;236;66830;-74
2022/06/19 09:48:31;;;;;;;;;;;;;;;22.07;80.04;97428.38;601667;235;66660;-74
2022/06/19 09:51:18;;;;;;;;;;;;;;;22.06;80.08;97421.44;601691;235;62801;-69
2022/06/19 09:53:47;;;;;;;;;;;;;;;22.07;80.12;97417.68;601687;236;66894;-70
2022/06/19 09:56:18;;;;;;;;;;;;;;;22.06;79.83;97422.23;601189;235;64672;-74
2022/06/19 09:58:50;;;;;;;;;;;;;;;22.07;79.91;97417.68;601583;236;63700;-75
2022/06/19 10:01:21;;;;;;;;;;;;;;;22.07;79.89;97423.03;601809;235;45618;-75
2022/06/19 10:03:50;;;;;;;;;;;;;;;22.07;79.91;97423.86;601716;235;66353;-75
2022/06/19 10:06:22;;;;;;;;;;;;;;;22.07;79.81;97417.68;601628;236;62851;-75
2022/06/19 10:08:57;;;;;;;;;;;;;;;22.07;79.67;97415.00;601413;236;65470;-75
2022/06/19 10:11:26;;;;;;;;;;;;;;;22.07;79.84;97420.35;601662;236;65030;-74
2022/06/19 10:13:55;;;;;;;;;;;;;;;22.06;79.86;97411.53;601669;236;64902;-69
2022/06/19 10:16:39;;;;;;;;;;;;;;;22.06;79.72;97419.56;601751;236;66697;-69
2022/06/19 10:19:14;;;;;;;;;;;;;;;22.07;79.77;97412.33;605780;233;63283;-69
2022/06/19 10:24:45;;;;;;;;;;;;;;;22.06;79.77;97408.05;607919;233;64703;-71
2022/06/19 10:27:17;;;;;;;;;;;;;;;22.06;79.90;97411.53;607914;233;64268;-70
2022/06/19 10:29:49;;;;;;;;;;;;;;;22.06;79.90;97410.73;604071;233;63045;-70
2022/06/19 10:32:18;;;;;;;;;;;;;;;22.05;79.69;97407.26;607922;233;64986;-75
2022/06/19 10:34:53;;;;;;;;;;;;;;;22.06;80.10;97410.73;607940;233;64329;-75
2022/06/19 10:37:31;;;;;;;;;;;;;;;22.06;80.12;97405.38;607939;233;62930;-76
2022/06/19 10:40:05;;;;;;;;;;;;;;;22.06;80.12;97405.38;607919;233;64525;-75
2022/06/19 10:42:46;;;;;;;;;;;;;;;22.06;80.09;97406.17;607920;233;66308;-75
2022/06/19 10:45:23;;;;;;;;;;;;;;;22.06;79.68;97408.05;607987;233;47384;-75
2022/06/19 10:48:11;;;;;;;;;;;;;;;22.06;79.66;97402.70;607839;233;66609;-74
2022/06/19 10:50:49;;;;;;;;;;;;;;;22.06;79.36;97402.70;607910;232;64275;-74
2022/06/19 10:53:36;;;;;;;;;;;;;;;22.06;79.43;97383.97;607976;233;62969;-76
2022/06/19 10:56:09;;;;;;;;;;;;;;;22.06;79.56;97402.70;607939;232;64636;-74
2022/06/19 10:58:37;;;;;;;;;;;;;;;22.06;79.86;97392.80;607918;233;64628;-74
2022/06/19 11:01:06;;;;;;;;;;;;;;;22.05;79.55;97399.23;607894;233;62928;-74
2022/06/19 11:06:41;;;;;;;;;;;;;;;22.06;79.23;97370.59;607932;233;66763;-74
2022/06/19 11:09:10;;;;;;;;;;;;;;;22.06;79.05;97392.00;607907;233;62959;-75
2022/06/19 11:11:38;;;;;;;;;;;;;;;22.06;79.24;97395.47;607810;233;66720;-75
2022/06/19 11:14:10;;;;;;;;;;;;;;;22.06;79.38;97390.11;607966;233;66651;-75
2022/06/19 11:16:55;;;;;;;;;;;;;;;22.06;79.13;97383.97;607901;233;64918;-75
2022/06/19 11:19:36;;;;;;;;;;;;;;;22.06;79.12;97381.29;607831;233;66884;-74
2022/06/19 11:22:05;;;;;;;;;;;;;;;22.06;79.14;97383.97;607955;233;66329;-74
2022/06/19 11:24:34;;;;;;;;;;;;;;;22.06;79.04;97374.05;607842;233;65113;-74
2022/06/19 11:27:02;;;;;;;;;;;;;;;22.06;78.96;97378.61;607978;233;66761;-74
2022/06/19 11:29:31;;;;;;;;;;;;;;;22.07;78.87;97374.86;607888;233;66721;-74
2022/06/19 11:32:01;;;;;;;;;;;;;;;22.07;79.03;97374.86;607896;233;65263;-73
2022/06/19 11:34:44;;;;;;;;;;;;;;;22.07;79.04;97372.17;607914;233;66793;-74
2022/06/19 11:37:13;;;;;;;;;;;;;;;22.07;79.03;97375.68;607941;233;64384;-74
2022/06/19 11:39:45;;;;;;;;;;;;;;;22.06;78.97;97371.37;607907;233;62759;-74
2022/06/19 11:42:23;;;;;;;;;;;;;;;22.07;79.06;97364.98;607896;232;66735;-74
2022/06/19 11:44:58;;;;;;;;;;;;;;;22.07;79.18;97353.44;607947;233;64406;-74
2022/06/19 11:47:27;;;;;;;;;;;;;;;22.07;79.10;97356.13;607936;233;62818;-74
2022/06/19 11:50:03;;;;;;;;;;;;;;;22.07;79.26;97353.44;607922;233;66603;-74
2022/06/19 11:52:30;;;;;;;;;;;;;;;22.06;78.96;97349.97;607757;233;66767;-74
2022/06/19 11:54:58;;;;;;;;;;;;;;;22.06;78.88;97343.82;607864;233;65061;-74
2022/06/19 11:57:27;;;;;;;;;;;;;;;22.05;78.84;97334.20;607955;233;67059;-74
2022/06/19 11:59:56;;;;;;;;;;;;;;;22.06;78.95;97335.80;607878;233;66715;-74
2022/06/19 12:02:34;;;;;;;;;;;;;;;22.08;79.00;97336.33;607927;233;63012;-74
2022/06/19 12:05:04;;;;;;;;;;;;;;;22.06;78.88;97331.23;607821;233;71395;-74
2022/06/19 12:07:34;;;;;;;;;;;;;;;22.07;78.91;97332.86;607900;233;64593;-74
2022/06/19 12:10:06;;;;;;;;;;;;;;;22.07;78.67;97332.03;607991;233;64857;-74
2022/06/19 12:12:34;;;;;;;;;;;;;;;22.07;78.68;97334.70;608037;233;66762;-74
2022/06/19 12:15:03;;;;;;;;;;;;;;;22.07;78.78;97321.33;607938;233;64554;-74
2022/06/19 12:17:35;;;;;;;;;;;;;;;22.06;78.63;97320.53;607875;233;64906;-73
2022/06/19 12:20:07;;;;;;;;;;;;;;;22.07;78.73;97315.97;607903;233;66822;-76
2022/06/19 12:22:49;;;;;;;;;;;;;;;22.06;78.66;97309.83;607958;233;64412;-74
2022/06/19 12:25:18;;;;;;;;;;;;;;;22.08;78.67;97312.24;607982;233;66124;-74
2022/06/19 12:27:46;;;;;;;;;;;;;;;22.07;78.64;97315.97;607927;232;64352;-74
2022/06/19 12:30:15;;;;;;;;;;;;;;;22.07;78.77;97315.97;607874;233;64620;-74
2022/06/19 12:32:44;;;;;;;;;;;;;;;22.06;78.76;97315.17;607900;233;63689;-74
2022/06/19 12:35:16;;;;;;;;;;;;;;;22.06;78.69;97317.06;607934;233;64452;-74
2022/06/19 12:37:44;;;;;;;;;;;;;;;22.07;78.75;97314.12;607837;233;66353;-73
2022/06/19 12:40:13;;;;;;;;;;;;;;;22.07;78.61;97326.67;607972;233;64863;-73
2022/06/19 12:42:48;;;;;;;;;;;;;;;22.07;78.67;97305.27;607839;233;64381;-74
2022/06/19 12:45:17;;;;;;;;;;;;;;;22.08;78.50;97312.24;607907;232;65886;-74
2022/06/19 12:48:03;;;;;;;;;;;;;;;22.07;78.44;97305.27;607987;233;46231;-74
2022/06/19 12:50:35;;;;;;;;;;;;;;;22.07;78.47;97299.91;607932;233;64284;-74
2022/06/19 12:53:07;;;;;;;;;;;;;;;22.07;78.41;97294.56;607909;233;66797;-74
2022/06/19 12:55:52;;;;;;;;;;;;;;;22.07;78.48;97305.27;607995;233;64909;-74
2022/06/19 12:58:24;;;;;;;;;;;;;;;22.06;78.26;97304.47;607975;233;64540;-74
2022/06/19 13:00:53;;;;;;;;;;;;;;;22.06;78.56;97301.80;607933;233;66690;-74
2022/06/19 13:03:36;;;;;;;;;;;;;;;22.07;78.71;97294.56;607819;233;62934;-74
2022/06/19 13:06:08;;;;;;;;;;;;;;;22.07;78.43;97294.56;607905;233;66590;-70
2022/06/19 13:08:46;;;;;;;;;;;;;;;22.07;78.04;97292.71;607904;232;64556;-69
2022/06/19 13:11:15;;;;;;;;;;;;;;;22.06;78.00;97288.41;607868;233;65257;-70
2022/06/19 13:13:52;;;;;;;;;;;;;;;22.07;77.98;97286.53;607939;233;64871;-70